Mistral — TCCH — position and weather

sailwx.info

Track history (hours):
 
Tides and Currents Weather Stations Pressure Air Temp Water Temp Dewpoint Dewpoint Depression Visibility Wind Speed Wind Dir Waves Ship Positions

Mistral

Last reported at 2018-May-17 10:19 UTC. Time now 2018-May-26 12:06 UTC.
Position N 35°58' W 005°35'.
Warning: this ship's position is 9 days out of date.

Length 126 m; draft 6.4 m.

Type: Ship (hazmat cat B). MMSI: 271000615.

Date/timePositionNaut miles runAvg speedWind from/ knotsBaromVisibWave heightAir tempDewpointWater temp
2018-May-17 10:19N 35°58' W 005°35'3 7.8
2018-May-17 09:57N 35°59' W 005°31'5 7.7
2018-May-17 09:21N 36°00' W 005°26'2 7.4
2018-May-17 09:00N 36°01' W 005°23'4 8.0
2018-May-17 08:31N 36°01' W 005°18'4 7.8
2018-May-17 07:59N 36°02' W 005°13'  
2018-May-13 05:26N 37°07' E 012°38'510.1
2018-May-13 04:56N 37°06' E 012°44'410.1
2018-May-13 04:29N 37°05' E 012°49'510.0
2018-May-13 04:01N 37°03' E 012°55'5 9.9
2018-May-13 03:30N 37°01' E 013°00'5 9.9
2018-May-13 03:00N 36°59' E 013°06'6 9.9
2018-May-13 02:21N 36°57' E 013°14'3510.0
2018-May-12 22:52N 36°47' E 013°55'410.1
2018-May-12 22:29N 36°45' E 014°00'5 9.9
2018-May-12 22:00N 36°44' E 014°06'5 9.7
2018-May-12 21:29N 36°43' E 014°12'5 9.7
2018-May-12 20:57N 36°41' E 014°18'4 9.6
2018-May-12 20:30N 36°40' E 014°23'5 9.4
2018-May-12 19:59N 36°38' E 014°29'4 9.1
2018-May-12 19:30N 36°37' E 014°34'5 8.7
2018-May-12 18:59N 36°36' E 014°40'  
Track history (hours):
 
Tides and Currents Weather Stations Pressure Air Temp Water Temp Dewpoint Dewpoint Depression Visibility Wind Speed Wind Dir Waves Ship Positions

Mistral

Last reported at 2018-May-17 10:19 UTC. Time now 2018-May-26 12:06 UTC.
Position N 35°58' W 005°35'.
Warning: this ship's position is 9 days out of date.

Length 126 m; draft 6.4 m.

Type: Ship (hazmat cat B). MMSI: 271000615.

Date/timePositionNaut miles runAvg speedWind from/ knotsBaromVisibWave heightAir tempDewpointWater temp
2018-May-17 10:19N 35°58' W 005°35'3 7.8
2018-May-17 09:57N 35°59' W 005°31'5 7.7
2018-May-17 09:21N 36°00' W 005°26'2 7.4
2018-May-17 09:00N 36°01' W 005°23'4 8.0
2018-May-17 08:31N 36°01' W 005°18'4 7.8
2018-May-17 07:59N 36°02' W 005°13'  
2018-May-13 05:26N 37°07' E 012°38'510.1
2018-May-13 04:56N 37°06' E 012°44'410.1
2018-May-13 04:29N 37°05' E 012°49'510.0
2018-May-13 04:01N 37°03' E 012°55'5 9.9
2018-May-13 03:30N 37°01' E 013°00'5 9.9
2018-May-13 03:00N 36°59' E 013°06'6 9.9
2018-May-13 02:21N 36°57' E 013°14'3510.0
2018-May-12 22:52N 36°47' E 013°55'410.1
2018-May-12 22:29N 36°45' E 014°00'5 9.9
2018-May-12 22:00N 36°44' E 014°06'5 9.7
2018-May-12 21:29N 36°43' E 014°12'5 9.7
2018-May-12 20:57N 36°41' E 014°18'4 9.6
2018-May-12 20:30N 36°40' E 014°23'5 9.4
2018-May-12 19:59N 36°38' E 014°29'4 9.1
2018-May-12 19:30N 36°37' E 014°34'5 8.7
2018-May-12 18:59N 36°36' E 014°40'  

Dump ship's entire track history